Time;durP1;ratioP1;P1;durP2;ratioP2;P2;SDS_P1;SDS_P2;PMS_P1;PMS_P2;Temp;Humidity;BMP_temperature;BMP_pressure;BME280_temperature;BME280_humidity;BME280_pressure;Samples;Min_cycle;Max_cycle;Signal;HPM_P1;HPM_P2
2021/11/09 00:00:18;;;;;;;11.73;4.92;;;;;;;7.68;100.00;101436.04;1793019;78;21083;-69
2021/11/09 00:02:46;;;;;;;14.43;5.60;;;;;;;7.70;100.00;101428.89;1788120;78;21049;-68
2021/11/09 00:05:17;;;;;;;9.90;5.25;;;;;;;7.74;100.00;101442.63;1789937;78;21024;-68
2021/11/09 00:07:49;;;;;;;13.30;6.40;;;;;;;7.77;100.00;101448.83;1792810;78;21082;-70
2021/11/09 00:10:13;;;;;;;11.18;6.35;;;;;;;7.76;100.00;101459.08;1793431;78;21118;-68
2021/11/09 00:12:44;;;;;;;11.60;6.30;;;;;;;7.81;100.00;101475.91;1796084;78;21102;-68
2021/11/09 00:15:15;;;;;;;12.25;6.78;;;;;;;7.82;100.00;101467.00;1801926;78;21440;-69
2021/11/09 00:17:43;;;;;;;10.63;5.90;;;;;;;7.84;100.00;101474.54;1789743;78;21129;-69
2021/11/09 00:20:13;;;;;;;11.95;6.42;;;;;;;7.84;100.00;101469.20;1793157;78;21083;-70
2021/11/09 00:22:39;;;;;;;11.73;6.40;;;;;;;7.85;100.00;101475.00;1797600;78;21807;-69
2021/11/09 00:25:07;;;;;;;11.83;6.47;;;;;;;7.87;100.00;101459.84;1799059;78;21457;-69
2021/11/09 00:27:35;;;;;;;9.33;5.72;;;;;;;7.86;100.00;101456.28;1791920;78;21049;-70
2021/11/09 00:30:02;;;;;;;16.35;7.35;;;;;;;7.87;100.00;101450.03;1793884;78;21067;-67
2021/11/09 00:32:30;;;;;;;11.90;6.62;;;;;;;7.88;100.00;101449.59;1790611;78;21142;-68
2021/11/09 00:34:57;;;;;;;12.85;6.40;;;;;;;7.89;100.00;101454.03;1794368;78;21527;-68
2021/11/09 00:37:23;;;;;;;16.42;6.55;;;;;;;7.90;100.00;101465.14;1796578;78;21099;-67
2021/11/09 00:39:50;;;;;;;12.15;6.08;;;;;;;7.93;100.00;101461.09;1790232;78;21059;-68
2021/11/09 00:42:16;;;;;;;9.43;5.20;;;;;;;7.92;100.00;101460.66;1803969;78;21572;-67
2021/11/09 00:44:43;;;;;;;11.57;6.03;;;;;;;7.93;100.00;101458.42;1796308;78;21123;-66
2021/11/09 00:47:10;;;;;;;16.12;7.00;;;;;;;7.97;100.00;101462.81;1780569;78;21094;-60
2021/11/09 00:49:37;;;;;;;13.75;7.20;;;;;;;8.00;100.00;101464.58;1776029;79;21054;-59
2021/11/09 00:52:05;;;;;;;16.00;7.28;;;;;;;8.02;100.00;101464.10;1779126;79;20990;-59
2021/11/09 00:54:35;;;;;;;13.60;7.08;;;;;;;8.05;100.00;101444.47;1773647;79;21384;-60
2021/11/09 00:57:01;;;;;;;11.35;7.00;;;;;;;8.09;100.00;101438.20;1774393;79;21135;-60
2021/11/09 00:59:28;;;;;;;13.50;6.78;;;;;;;8.11;100.00;101436.39;1769376;79;21629;-59
2021/11/09 01:01:55;;;;;;;12.43;6.65;;;;;;;8.09;100.00;101420.84;1769707;79;21111;-59
2021/11/09 01:04:22;;;;;;;14.45;7.35;;;;;;;8.06;100.00;101414.18;1769237;79;21446;-59
2021/11/09 01:06:49;;;;;;;13.15;7.55;;;;;;;8.06;100.00;101420.86;1737549;80;21058;-59
2021/11/09 01:09:16;;;;;;;17.65;8.38;;;;;;;8.05;100.00;101428.44;1771943;79;21027;-59
2021/11/09 01:11:42;;;;;;;15.58;7.85;;;;;;;8.03;100.00;101434.69;1773383;79;21168;-59
2021/11/09 01:14:11;;;;;;;14.70;8.88;;;;;;;8.02;100.00;101422.23;1774360;79;21471;-59
2021/11/09 01:16:39;;;;;;;16.07;8.93;;;;;;;8.02;100.00;101424.91;1776399;79;21730;-59
2021/11/09 01:19:07;;;;;;;15.50;9.18;;;;;;;8.03;100.00;101433.35;1699716;83;21497;-60
2021/11/09 01:21:35;;;;;;;15.20;9.40;;;;;;;8.06;100.00;101436.88;1703022;83;21460;-60
2021/11/09 01:24:02;;;;;;;13.72;8.58;;;;;;;8.06;100.00;101433.77;1771365;79;21872;-60
2021/11/09 01:26:29;;;;;;;16.90;8.88;;;;;;;8.08;100.00;101436.44;1771495;79;22103;-59
2021/11/09 01:28:58;;;;;;;15.03;8.75;;;;;;;8.09;100.00;101438.20;1772471;79;21067;-59
2021/11/09 01:31:24;;;;;;;17.17;9.53;;;;;;;8.10;100.00;101447.98;1769281;79;21033;-58
2021/11/09 01:33:51;;;;;;;16.20;8.83;;;;;;;8.07;100.00;101450.66;1776034;79;21521;-60
2021/11/09 01:36:19;;;;;;;15.68;8.68;;;;;;;8.08;100.00;101449.80;1699657;83;21104;-59
2021/11/09 01:38:46;;;;;;;16.45;9.60;;;;;;;8.14;100.00;101455.05;1774349;79;21011;-61
2021/11/09 01:41:13;;;;;;;16.95;8.85;;;;;;;8.16;100.00;101454.10;1772323;79;21442;-60
2021/11/09 01:43:41;;;;;;;15.53;8.80;;;;;;;8.16;100.00;101447.89;1775549;79;21092;-60
2021/11/09 01:46:08;;;;;;;14.50;8.15;;;;;;;8.16;100.00;101432.73;1772762;79;21127;-59
2021/11/09 01:48:35;;;;;;;14.15;7.83;;;;;;;8.16;100.00;101419.84;1769828;79;21088;-59
2021/11/09 01:51:06;;;;;;;16.07;7.78;;;;;;;8.17;100.00;101432.29;1773280;79;21079;-60
2021/11/09 01:53:34;;;;;;;13.70;8.18;;;;;;;8.14;100.00;101436.34;1771510;79;21413;-60
2021/11/09 01:56:03;;;;;;;15.40;8.55;;;;;;;8.11;100.00;101441.73;1774979;79;21072;-60
2021/11/09 01:58:32;;;;;;;16.32;8.18;;;;;;;8.09;100.00;101447.55;1771827;79;21087;-60
2021/11/09 02:01:07;;;;;;;21.37;9.05;;;;;;;8.09;100.00;101452.89;1769957;79;21052;-60
2021/11/09 02:03:36;;;;;;;17.23;9.08;;;;;;;8.14;100.00;101455.05;1769660;79;21095;-59
2021/11/09 02:06:03;;;;;;;17.12;9.20;;;;;;;8.19;100.00;101458.53;1771655;79;21042;-59
2021/11/09 02:08:31;;;;;;;14.13;8.40;;;;;;;8.21;100.00;101462.53;1784037;79;21072;-59
2021/11/09 02:10:58;;;;;;;14.45;8.33;;;;;;;8.22;100.00;101454.94;1777832;79;21076;-60
2021/11/09 02:13:25;;;;;;;15.30;8.48;;;;;;;8.22;100.00;101450.47;1770339;79;21072;-59
2021/11/09 02:15:52;;;;;;;18.30;8.63;;;;;;;8.23;100.00;101452.23;1769798;79;21086;-59
2021/11/09 02:18:19;;;;;;;14.45;8.68;;;;;;;8.26;100.00;101460.20;1779818;79;21363;-59
2021/11/09 02:21:04;;;;;;;16.87;9.03;;;;;;;8.26;100.00;101449.98;1777737;79;21029;-59
2021/11/09 02:23:32;;;;;;;16.25;8.48;;;;;;;8.25;100.00;101455.77;1769497;79;21052;-59
2021/11/09 02:26:00;;;;;;;14.18;9.03;;;;;;;8.23;100.00;101448.23;1773236;79;21387;-59
2021/11/09 02:28:26;;;;;;;17.73;8.95;;;;;;;8.26;100.00;101452.19;1780453;79;21020;-59
2021/11/09 02:30:53;;;;;;;18.98;9.13;;;;;;;8.26;100.00;101454.86;1771411;79;21056;-59
2021/11/09 02:33:19;;;;;;;19.87;9.40;;;;;;;8.25;100.00;101458.44;1775830;79;21309;-59
2021/11/09 02:35:46;;;;;;;17.40;8.03;;;;;;;8.26;100.00;101466.88;1777436;79;21573;-60
2021/11/09 02:38:13;;;;;;;15.68;8.40;;;;;;;8.28;100.00;101466.40;1769768;79;21092;-61
2021/11/09 02:40:40;;;;;;;16.60;7.62;;;;;;;8.29;100.00;101465.53;1775751;79;21072;-59
2021/11/09 02:43:10;;;;;;;13.28;7.78;;;;;;;8.36;100.00;101476.12;1775641;79;21079;-59
2021/11/09 02:46:34;;;;;;;19.95;8.28;;;;;;;8.39;100.00;101481.42;1736843;81;21066;-60
2021/11/09 02:48:29;;;;;;;16.82;8.35;;;;;;;8.45;100.00;101487.56;1765586;79;21030;-59
2021/11/09 02:50:49;;;;;;;19.35;9.08;;;;;;;8.50;100.00;101484.84;1782353;78;21143;-59
2021/11/09 02:53:27;;;;;;;15.60;8.60;;;;;;;8.52;100.00;101482.16;1787682;78;21052;-59
2021/11/09 02:55:49;;;;;;;19.42;9.23;;;;;;;8.53;100.00;101487.49;1787292;78;21054;-59
2021/11/09 02:58:24;;;;;;;17.00;8.95;;;;;;;8.54;100.00;101470.98;1788512;78;20993;-59
2021/11/09 03:00:53;;;;;;;15.58;7.85;;;;;;;8.55;100.00;101472.31;1780607;79;21061;-59
2021/11/09 03:03:17;;;;;;;17.27;8.50;;;;;;;8.55;100.00;101464.30;1785172;78;21589;-59
2021/11/09 03:06:02;;;;;;;19.10;9.35;;;;;;;8.54;100.00;101473.66;1789772;79;21018;-59
2021/11/09 03:08:43;;;;;;;17.73;8.65;;;;;;;8.55;100.00;101469.64;1785978;79;21065;-60
2021/11/09 03:11:07;;;;;;;15.85;8.65;;;;;;;8.57;100.00;101481.63;1786148;78;21612;-59
2021/11/09 03:13:36;;;;;;;19.75;9.18;;;;;;;8.58;100.00;101482.05;1785998;78;21052;-60
2021/11/09 03:16:10;;;;;;;18.12;9.28;;;;;;;8.62;100.00;101488.25;1783701;79;21149;-60
2021/11/09 03:18:45;;;;;;;15.93;9.00;;;;;;;8.63;100.00;101487.34;1788965;78;21049;-60
2021/11/09 03:45:37;;;;;;;12.85;8.25;;;;;;;8.39;100.00;101482.75;1793077;78;21025;-59
2021/11/09 03:48:06;;;;;;;18.17;9.03;;;;;;;8.37;100.00;101482.76;1788872;79;21078;-58
2021/11/09 03:50:33;;;;;;;17.02;9.05;;;;;;;8.35;100.00;101487.72;1744851;80;21117;-60
2021/11/09 03:53:23;;;;;;;14.73;9.20;;;;;;;8.37;100.00;101491.25;1739822;80;21023;-59
2021/11/09 03:58:27;;;;;;;21.48;10.32;;;;;;;8.34;100.00;101483.28;1725656;81;21037;-59
2021/11/09 04:01:04;;;;;;;16.27;10.35;;;;;;;8.33;100.00;101484.19;1724128;80;21064;-60
2021/11/09 04:03:42;;;;;;;18.17;10.00;;;;;;;8.33;100.00;101481.52;1725524;82;21155;-59
2021/11/09 04:06:46;;;;;;;20.08;10.70;;;;;;;8.33;100.00;101472.16;1724910;81;21146;-59
2021/11/09 04:08:51;;;;;;;20.92;11.12;;;;;;;8.34;100.00;101465.91;1704478;81;21134;-60
2021/11/09 04:11:24;;;;;;;15.95;9.58;;;;;;;8.33;100.00;101470.83;1718834;81;21628;-68
2021/11/09 04:13:55;;;;;;;17.17;9.98;;;;;;;8.31;100.00;101479.75;1741553;80;21006;-68
2021/11/09 04:16:28;;;;;;;15.58;9.93;;;;;;;8.29;100.00;101481.56;1747593;80;21077;-68
2021/11/09 04:18:56;;;;;;;19.90;10.35;;;;;;;8.33;100.00;101494.87;1741369;81;21103;-67
2021/11/09 05:09:09;;;;;;;26.07;13.95;;;;;;;8.28;100.00;101542.55;1779312;79;21438;-68
2021/11/09 05:11:39;;;;;;;28.98;14.75;;;;;;;8.30;100.00;101546.55;1780675;79;21070;-68
2021/11/09 05:14:09;;;;;;;28.87;14.15;;;;;;;8.33;100.00;101542.97;1774561;79;21071;-67
2021/11/09 05:16:37;;;;;;;30.65;15.08;;;;;;;8.34;100.00;101558.09;1778570;78;21086;-67
2021/11/09 05:19:04;;;;;;;22.00;13.32;;;;;;;8.34;100.00;101542.93;1778808;79;21056;-68
2021/11/09 05:21:33;;;;;;;24.85;13.25;;;;;;;8.35;100.00;101551.84;1777156;79;21063;-67
2021/11/09 05:24:01;;;;;;;28.23;13.03;;;;;;;8.37;100.00;101564.73;1780757;79;21560;-67
2021/11/09 05:26:28;;;;;;;25.88;15.00;;;;;;;8.38;100.00;101566.50;1780519;79;21799;-67
2021/11/09 05:28:55;;;;;;;27.87;14.20;;;;;;;8.39;100.00;101568.27;1769154;79;21574;-67
2021/11/09 05:31:22;;;;;;;27.60;14.63;;;;;;;8.45;100.00;101570.84;1783777;78;21021;-67
2021/11/09 05:33:52;;;;;;;27.40;14.45;;;;;;;8.44;100.00;101567.75;1774841;79;21052;-68
2021/11/09 05:36:17;;;;;;;23.20;13.53;;;;;;;8.45;100.00;101565.07;1777247;79;21148;-68
2021/11/09 05:38:51;;;;;;;23.30;13.90;;;;;;;8.45;100.00;101566.84;1774491;79;21871;-68
2021/11/09 05:41:12;;;;;;;23.95;14.28;;;;;;;8.41;100.00;101573.14;1779324;79;21149;-67
2021/11/09 05:43:38;;;;;;;29.72;15.48;;;;;;;8.36;100.00;101580.34;1780503;79;21069;-67
2021/11/09 05:46:08;;;;;;;27.35;14.78;;;;;;;8.31;100.00;101579.95;1770522;79;21088;-68
2021/11/09 05:48:37;;;;;;;25.82;14.60;;;;;;;8.31;100.00;101582.62;1778936;79;21068;-67
2021/11/09 05:51:05;;;;;;;24.00;15.18;;;;;;;8.33;100.00;101591.06;1780288;79;21940;-67
2021/11/09 05:53:33;;;;;;;27.60;14.15;;;;;;;8.30;100.00;101586.63;1776976;79;21075;-68
2021/11/09 05:56:01;;;;;;;26.73;13.28;;;;;;;8.29;100.00;101593.78;1775121;77;21538;-68
2021/11/09 05:58:28;;;;;;;20.85;12.93;;;;;;;8.27;100.00;101592.88;1775256;79;21534;-68
2021/11/09 06:00:54;;;;;;;23.70;14.07;;;;;;;8.27;100.00;101595.55;1781591;79;21092;-67
2021/11/09 06:03:25;;;;;;;24.20;13.98;;;;;;;8.27;100.00;101591.55;1777205;79;21105;-68
2021/11/09 06:05:52;;;;;;;26.55;14.00;;;;;;;8.26;100.00;101588.91;1779941;77;21036;-67
2021/11/09 06:08:20;;;;;;;21.48;12.85;;;;;;;8.26;100.00;101604.47;1778479;79;21045;-68
2021/11/09 06:10:47;;;;;;;22.50;13.10;;;;;;;8.27;100.00;101613.39;1783372;79;22250;-68
2021/11/09 06:13:15;;;;;;;21.50;12.88;;;;;;;8.29;100.00;101615.16;1777220;79;21508;-68
2021/11/09 06:15:41;;;;;;;24.95;14.28;;;;;;;8.28;100.00;101604.00;1773454;77;21118;-68
2021/11/09 06:18:09;;;;;;;22.73;13.18;;;;;;;8.30;100.00;101624.94;1780676;79;21475;-67
2021/11/09 06:20:36;;;;;;;22.10;13.08;;;;;;;8.37;100.00;101632.88;1782407;79;21109;-67
2021/11/09 06:23:02;;;;;;;25.45;13.68;;;;;;;8.39;100.00;101647.97;1780290;79;21066;-68
2021/11/09 06:25:30;;;;;;;21.45;12.53;;;;;;;8.41;100.00;101649.30;1773629;77;21042;-67
2021/11/09 06:27:56;;;;;;;23.50;12.50;;;;;;;8.48;100.00;101663.02;1783464;79;21160;-68
2021/11/09 06:30:23;;;;;;;29.60;13.85;;;;;;;8.51;100.00;101656.36;1785574;79;21080;-68
2021/11/09 06:32:50;;;;;;;23.80;12.23;;;;;;;8.52;100.00;101652.78;1779580;79;21069;-68
2021/11/09 06:35:17;;;;;;;25.90;13.40;;;;;;;8.56;100.00;101651.83;1774127;79;21538;-67
2021/11/09 06:37:43;;;;;;;22.67;12.45;;;;;;;8.57;100.00;101654.94;1784005;79;21062;-67
2021/11/09 06:40:12;;;;;;;21.68;12.00;;;;;;;8.56;100.00;101650.50;1782580;79;21185;-67
2021/11/09 06:42:39;;;;;;;27.90;13.10;;;;;;;8.57;99.78;101638.00;1781956;77;21087;-68
2021/11/09 06:45:08;;;;;;;26.15;12.60;;;;;;;8.55;99.19;101643.38;1775389;79;21073;-69
2021/11/09 06:47:34;;;;;;;21.15;11.45;;;;;;;8.54;99.49;101648.30;1781100;79;21025;-70
2021/11/09 06:50:03;;;;;;;24.87;12.63;;;;;;;8.60;99.84;101650.88;1789778;78;21072;-68
2021/11/09 06:52:30;;;;;;;23.15;12.70;;;;;;;8.65;99.86;101649.50;1777336;78;21200;-70
2021/11/09 06:54:57;;;;;;;19.60;10.68;;;;;;;8.72;99.07;101650.28;1788100;79;20964;-69
2021/11/09 06:57:23;;;;;;;20.80;12.23;;;;;;;8.77;99.02;101654.24;1783844;78;21072;-69
2021/11/09 06:59:50;;;;;;;20.60;11.50;;;;;;;8.81;98.01;101650.19;1788491;78;21192;-71
2021/11/09 07:02:17;;;;;;;20.25;11.73;;;;;;;8.80;97.32;101652.86;1782581;78;21087;-68
2021/11/09 07:04:44;;;;;;;16.85;10.13;;;;;;;8.79;96.59;101650.66;1791305;78;22368;-67
2021/11/09 07:07:13;;;;;;;20.12;10.65;;;;;;;8.79;95.70;101647.98;1781422;78;21461;-68
2021/11/09 07:09:43;;;;;;;17.62;10.58;;;;;;;8.74;95.44;101649.84;1788499;78;21115;-67
2021/11/09 07:12:11;;;;;;;21.10;9.85;;;;;;;8.74;95.45;101648.50;1781545;77;21577;-68
2021/11/09 07:14:38;;;;;;;14.98;9.70;;;;;;;8.73;94.92;101644.03;1794379;78;21064;-68
2021/11/09 07:17:07;;;;;;;19.40;10.72;;;;;;;8.69;94.58;101648.55;1782276;78;21170;-68
2021/11/09 07:19:40;;;;;;;16.52;9.03;;;;;;;8.67;94.73;101657.05;1785462;78;21529;-59
2021/11/09 07:22:07;;;;;;;14.68;9.65;;;;;;;8.65;94.25;101665.98;1731110;80;21159;-59
2021/11/09 07:24:34;;;;;;;21.95;9.88;;;;;;;8.65;94.62;101672.66;1792917;78;21087;-59
2021/11/09 07:27:01;;;;;;;19.50;10.90;;;;;;;8.68;94.57;101663.27;1783468;78;21064;-68
2021/11/09 07:29:29;;;;;;;25.82;12.03;;;;;;;8.69;94.58;101671.72;1786260;78;22034;-69
2021/11/09 07:31:57;;;;;;;18.73;10.63;;;;;;;8.71;94.81;101659.21;1786847;78;21068;-68
2021/11/09 07:34:25;;;;;;;20.60;9.93;;;;;;;8.74;94.69;101665.41;1726997;80;21116;-69
2021/11/09 07:36:52;;;;;;;17.95;10.65;;;;;;;8.79;94.65;101667.14;1784503;78;21147;-68
2021/11/09 07:39:25;;;;;;;16.97;9.35;;;;;;;8.85;94.36;101675.97;1785818;78;21068;-68
2021/11/09 07:41:51;;;;;;;22.22;11.22;;;;;;;8.85;93.42;101679.98;1787594;77;21477;-68
2021/11/09 07:44:19;;;;;;;18.25;10.80;;;;;;;8.84;93.34;101689.34;1784701;78;22143;-68
2021/11/09 07:46:46;;;;;;;22.67;12.53;;;;;;;8.84;93.63;101686.23;1726937;80;20993;-68
2021/11/09 07:49:13;;;;;;;21.87;11.15;;;;;;;8.91;93.92;101682.14;1763508;79;21025;-67
2021/11/09 07:51:40;;;;;;;21.95;11.90;;;;;;;8.97;93.93;101685.63;1751296;79;21468;-69
2021/11/09 07:54:07;;;;;;;29.57;14.98;;;;;;;9.05;93.67;101688.64;1754663;79;21080;-68
2021/11/09 07:56:37;;;;;;;47.13;21.17;;;;;;;9.13;93.72;101680.94;1752340;79;20990;-68
2021/11/09 08:01:49;;;;;;;33.38;14.98;;;;;;;9.27;93.12;101690.11;1748170;79;21640;-68
2021/11/09 08:04:25;;;;;;;28.23;13.55;;;;;;;9.31;93.08;101690.52;1749554;79;21655;-68
2021/11/09 08:09:29;;;;;;;21.85;11.12;;;;;;;9.37;92.99;101702.91;1744377;79;21040;-68
2021/11/09 08:11:58;;;;;;;28.27;11.90;;;;;;;9.39;92.34;101701.08;1749745;79;21534;-67
2021/11/09 08:14:25;;;;;;;23.65;11.05;;;;;;;9.39;92.11;101695.73;1750823;79;21083;-72
2021/11/09 08:16:52;;;;;;;32.53;11.90;;;;;;;9.42;91.17;101702.84;1750064;79;21293;-66
2021/11/09 08:19:20;;;;;;;22.87;11.15;;;;;;;9.40;91.48;101712.25;1747561;79;21764;-70
2021/11/09 08:21:48;;;;;;;18.65;10.08;;;;;;;9.42;91.44;101714.45;1750064;79;21082;-70
2021/11/09 08:24:17;;;;;;;20.80;10.63;;;;;;;9.46;91.45;101708.14;1749606;79;21565;-68
2021/11/09 08:26:45;;;;;;;17.32;10.65;;;;;;;9.48;91.09;101715.26;1752172;79;21126;-64
2021/11/09 08:29:13;;;;;;;18.15;9.93;;;;;;;9.49;91.04;101718.37;1750851;79;21009;-70
2021/11/09 08:31:43;;;;;;;19.10;10.28;;;;;;;9.44;89.72;101726.45;1752410;79;21540;-67
2021/11/09 08:34:09;;;;;;;22.13;9.80;;;;;;;9.36;89.87;101725.69;1749414;79;21059;-70
2021/11/09 08:36:39;;;;;;;23.05;10.25;;;;;;;9.35;90.03;101726.13;1754666;79;22254;-71
2021/11/09 08:39:07;;;;;;;17.15;9.63;;;;;;;9.32;89.29;101711.46;1749073;79;21675;-70
2021/11/09 08:42:01;;;;;;;15.98;8.58;;;;;;;9.31;88.59;101721.30;1753458;79;21400;-69
2021/11/09 08:44:17;;;;;;;16.35;7.90;;;;;;;9.26;87.57;101722.27;1741658;79;21835;-69
2021/11/09 08:46:42;;;;;;;15.30;8.28;;;;;;;9.19;87.63;101729.95;1747214;79;21639;-69
2021/11/09 08:49:07;;;;;;;14.03;8.70;;;;;;;9.14;87.12;101749.59;1712060;81;20980;-70
2021/11/09 08:51:35;;;;;;;16.48;9.38;;;;;;;9.10;87.57;101736.30;1724228;81;21954;-69
2021/11/09 08:54:12;;;;;;;13.85;8.50;;;;;;;9.11;87.35;101736.27;1728821;81;21054;-70
2021/11/09 09:04:55;;;;;;;18.55;9.50;;;;;;;9.34;88.88;101748.92;1774335;79;21770;-69
2021/11/09 09:07:24;;;;;;;29.02;11.10;;;;;;;9.49;88.89;101750.49;1779425;79;21060;-70
2021/11/09 09:09:51;;;;;;;18.50;9.85;;;;;;;9.57;87.97;101755.27;1747977;80;21726;-69
2021/11/09 09:12:21;;;;;;;17.42;8.78;;;;;;;9.56;87.17;101747.70;1742375;80;21072;-70
2021/11/09 09:14:48;;;;;;;15.72;8.75;;;;;;;9.58;87.27;101749.91;1742197;81;21089;-70
2021/11/09 09:17:16;;;;;;;22.60;9.05;;;;;;;9.63;87.17;101741.81;1741780;80;21628;-69
2021/11/09 09:20:13;;;;;;;18.30;8.78;;;;;;;9.68;87.38;101733.25;1711669;82;21590;-69
2021/11/09 09:22:44;;;;;;;16.32;7.80;;;;;;;9.75;87.30;101737.59;1644149;85;21181;-73
2021/11/09 09:25:17;;;;;;;15.98;7.65;;;;;;;9.83;87.09;101732.55;1645990;85;21160;-71
2021/11/09 09:30:28;;;;;;;30.15;9.65;;;;;;;9.94;86.90;101723.00;1633819;85;21561;-70
2021/11/09 09:52:29;;;;;;;16.93;7.50;;;;;;;10.27;85.58;101732.25;1645409;85;21135;-70
2021/11/09 09:55:01;;;;;;;21.10;8.45;;;;;;;10.31;85.56;101732.64;1642364;85;21534;-69
2021/11/09 09:57:14;;;;;;;16.37;8.33;;;;;;;10.34;85.75;101736.18;1649918;84;21095;-67
2021/11/09 09:59:45;;;;;;;16.12;8.68;;;;;;;10.40;85.73;101737.40;1644085;85;21497;-68
2021/11/09 10:02:26;;;;;;;15.20;8.15;;;;;;;10.46;85.51;101738.66;1642935;85;21333;-68
2021/11/09 10:05:11;;;;;;;14.25;8.05;;;;;;;10.49;84.86;101743.08;1606827;87;21556;-68
2021/11/09 10:07:41;;;;;;;15.70;7.25;;;;;;;10.47;84.69;101747.12;1616595;86;21145;-68
2021/11/09 10:10:22;;;;;;;13.75;7.03;;;;;;;10.44;83.04;101753.88;1618268;86;21687;-68
2021/11/09 10:13:04;;;;;;;12.88;7.47;;;;;;;10.36;81.57;101758.48;1613529;86;21594;-69
2021/11/09 10:15:33;;;;;;;14.30;7.28;;;;;;;10.22;81.95;101738.16;1633564;85;21298;-59
2021/11/09 10:18:04;;;;;;;14.10;7.15;;;;;;;10.12;82.66;101754.84;1635265;85;21110;-58
2021/11/09 10:20:43;;;;;;;16.55;7.53;;;;;;;10.03;82.96;101745.17;1635858;85;21119;-57
2021/11/09 10:23:24;;;;;;;19.20;8.50;;;;;;;9.99;83.54;101731.39;1641368;85;21138;-59
2021/11/09 10:25:54;;;;;;;16.43;7.57;;;;;;;9.95;84.06;101743.08;1642837;84;22299;-58
2021/11/09 10:28:23;;;;;;;17.10;7.95;;;;;;;9.92;84.74;101748.49;1650887;84;21149;-59
2021/11/09 10:31:03;;;;;;;16.97;7.03;;;;;;;9.92;84.82;101753.85;1607316;86;21495;-58
2021/11/09 10:33:39;;;;;;;14.95;7.30;;;;;;;9.95;85.20;101750.25;1588640;88;21006;-58
2021/11/09 10:36:00;;;;;;;17.62;8.85;;;;;;;9.99;84.93;101747.47;1615327;86;21539;-57
2021/11/09 10:38:31;;;;;;;22.20;8.85;;;;;;;10.00;85.21;101747.90;1613477;86;21122;-58
2021/11/09 10:41:00;;;;;;;12.20;7.28;;;;;;;10.01;85.59;101747.46;1642152;84;21811;-58
2021/11/09 10:43:30;;;;;;;18.52;8.00;;;;;;;10.06;86.08;101742.00;1640394;84;21087;-57
2021/11/09 10:46:00;;;;;;;15.00;6.85;;;;;;;10.14;86.40;101746.33;1641132;85;21395;-58
2021/11/09 10:48:28;;;;;;;21.05;8.40;;;;;;;10.16;85.71;101755.22;1645011;85;20976;-59
2021/11/09 10:50:58;;;;;;;21.40;8.25;;;;;;;10.12;85.92;101749.96;1615711;86;21115;-60
2021/11/09 10:53:45;;;;;;;19.10;8.75;;;;;;;10.08;85.46;101746.91;1610975;86;21111;-60
2021/11/09 10:56:35;;;;;;;17.95;9.03;;;;;;;10.02;85.79;101742.06;1593055;87;21033;-56
2021/11/09 10:59:25;;;;;;;18.80;7.90;;;;;;;10.06;86.09;101739.32;1612352;87;21103;-60
2021/11/09 11:04:35;;;;;;;19.35;8.65;;;;;;;10.15;86.34;101737.84;1610506;86;22483;-57
2021/11/09 11:07:06;;;;;;;23.90;9.75;;;;;;;10.20;86.39;101742.66;1613103;86;21633;-59
2021/11/09 11:09:38;;;;;;;19.92;10.23;;;;;;;10.22;86.16;101754.23;1612349;86;21179;-58
2021/11/09 11:12:14;;;;;;;19.77;10.15;;;;;;;10.23;86.02;101750.64;1573020;88;21119;-58
2021/11/09 11:14:45;;;;;;;21.68;11.38;;;;;;;10.26;86.02;101750.58;1576057;88;21159;-58
2021/11/09 11:17:17;;;;;;;19.15;9.60;;;;;;;10.27;85.90;101749.67;1610724;86;21620;-58
2021/11/09 11:19:54;;;;;;;29.10;12.95;;;;;;;10.26;85.93;101754.61;1635237;84;21080;-60
2021/11/09 11:22:24;;;;;;;22.55;11.53;;;;;;;10.24;85.85;101757.77;1619266;84;21033;-58
2021/11/09 11:24:52;;;;;;;21.55;9.50;;;;;;;10.21;85.87;101761.84;1602386;86;21141;-59
2021/11/09 11:27:19;;;;;;;18.62;8.35;;;;;;;10.18;85.63;101760.56;1609590;86;21063;-59
2021/11/09 11:29:46;;;;;;;16.80;8.73;;;;;;;10.14;85.31;101764.22;1609818;86;21120;-60
2021/11/09 11:32:20;;;;;;;22.02;9.50;;;;;;;10.12;85.38;101758.00;1608050;86;22632;-60
2021/11/09 11:34:47;;;;;;;20.32;8.60;;;;;;;10.10;85.07;101756.67;1606367;86;21337;-60
2021/11/09 11:37:16;;;;;;;16.67;8.98;;;;;;;10.08;84.83;101761.65;1595270;86;21091;-57
2021/11/09 11:40:02;;;;;;;18.62;10.05;;;;;;;10.08;84.73;101758.97;1596414;88;21590;-60
2021/11/09 11:42:39;;;;;;;31.85;9.85;;;;;;;10.04;84.21;101758.99;1610256;86;21050;-59
2021/11/09 11:45:08;;;;;;;21.50;8.45;;;;;;;10.00;84.01;101749.23;1606630;86;50399;-59
2021/11/09 11:47:35;;;;;;;25.60;8.35;;;;;;;9.96;83.85;101742.64;1610365;86;21168;-60
2021/11/09 11:50:11;;;;;;;21.05;8.80;;;;;;;9.93;83.95;101755.63;1610826;86;21109;-59
2021/11/09 11:52:50;;;;;;;21.95;8.70;;;;;;;9.96;84.10;101766.28;1612238;86;21604;-59
2021/11/09 11:55:23;;;;;;;24.92;8.03;;;;;;;10.00;83.62;101772.48;1607393;86;21135;-60
2021/11/09 11:58:07;;;;;;;18.65;8.40;;;;;;;9.96;83.85;101772.98;1604018;86;21537;-60
2021/11/09 12:00:40;;;;;;;19.50;7.87;;;;;;;9.99;84.12;101774.27;1596847;86;21116;-60
2021/11/09 12:03:25;;;;;;;16.62;7.53;;;;;;;10.06;84.59;101786.22;1607134;86;21103;-58
2021/11/09 12:05:55;;;;;;;17.98;7.53;;;;;;;10.10;84.83;101782.60;1607045;86;21460;-59
2021/11/09 12:08:42;;;;;;;20.02;8.90;;;;;;;10.10;85.16;101795.53;1612979;86;21739;-59
2021/11/09 12:11:21;;;;;;;24.32;8.13;;;;;;;10.10;85.22;101788.83;1611510;86;21668;-59
2021/11/09 12:13:57;;;;;;;18.05;8.58;;;;;;;10.09;85.45;101790.22;1599231;86;22150;-59
2021/11/09 12:16:48;;;;;;;18.20;8.40;;;;;;;10.10;85.60;101801.36;1613586;86;21541;-59
2021/11/09 12:19:46;;;;;;;20.48;8.78;;;;;;;10.14;85.52;101809.77;1612187;86;21600;-58
2021/11/09 12:22:18;;;;;;;14.93;8.80;;;;;;;10.17;85.61;101801.23;1612999;86;21646;-60
2021/11/09 12:24:58;;;;;;;15.43;8.10;;;;;;;10.21;85.34;101807.41;1617515;86;21582;-59
2021/11/09 12:27:58;;;;;;;19.30;8.40;;;;;;;10.21;85.54;101803.86;1618900;86;21641;-58
2021/11/09 12:30:37;;;;;;;18.62;8.65;;;;;;;10.22;85.60;101797.13;1614677;86;21099;-58
2021/11/09 12:33:19;;;;;;;17.12;8.68;;;;;;;10.18;85.45;101777.98;1619029;86;21629;-59
2021/11/09 12:35:51;;;;;;;18.25;9.08;;;;;;;10.14;85.49;101777.14;1626860;86;21120;-59
2021/11/09 12:38:33;;;;;;;34.53;12.98;;;;;;;10.11;85.65;101783.03;1623176;86;21843;-59
2021/11/09 12:41:30;;;;;;;25.62;11.50;;;;;;;10.08;85.96;101784.42;1583905;88;21137;-58
2021/11/09 12:44:01;;;;;;;14.47;7.92;;;;;;;10.11;86.20;101799.11;1564600;89;21131;-58
2021/11/09 12:46:39;;;;;;;15.32;8.30;;;;;;;10.09;85.46;101825.05;1568628;89;21152;-58
2021/11/09 12:49:22;;;;;;;18.35;8.20;;;;;;;10.03;85.44;101830.91;1560115;89;21129;-58
2021/11/09 12:51:53;;;;;;;18.50;9.43;;;;;;;9.98;85.30;101831.44;1579674;88;21280;-58
2021/11/09 12:54:27;;;;;;;19.50;9.55;;;;;;;9.92;85.53;101828.86;1618118;86;20947;-58
2021/11/09 12:56:59;;;;;;;20.30;9.67;;;;;;;9.91;85.87;101831.11;1621289;86;21320;-57
2021/11/09 13:02:07;;;;;;;19.80;8.48;;;;;;;9.81;84.89;101842.41;1619595;86;21649;-61
2021/11/09 13:07:31;;;;;;;27.02;10.98;;;;;;;9.65;85.15;101858.25;1612625;86;22184;-60
2021/11/09 13:09:54;;;;;;;24.00;11.45;;;;;;;9.59;85.42;101864.56;1615637;86;21173;-61
2021/11/09 13:12:30;;;;;;;25.30;9.78;;;;;;;9.58;85.92;101872.17;1615916;86;21136;-58
2021/11/09 13:15:06;;;;;;;15.83;7.85;;;;;;;9.62;86.15;101881.97;1620689;86;21013;-61
2021/11/09 13:21:14;;;;;;;26.07;11.57;;;;;;;9.68;87.16;101881.88;1640630;85;20970;-61
2021/11/09 13:23:43;;;;;;;17.02;9.55;;;;;;;9.65;87.33;101875.66;1642303;85;21125;-60
2021/11/09 13:26:09;;;;;;;23.65;10.75;;;;;;;9.63;87.34;101887.75;1645595;85;21121;-61
2021/11/09 13:28:36;;;;;;;23.80;10.25;;;;;;;9.60;87.37;101887.32;1641658;85;21137;-61
2021/11/09 13:31:10;;;;;;;19.73;8.45;;;;;;;9.58;87.61;101890.47;1645858;85;21137;-62
2021/11/09 13:33:41;;;;;;;21.90;8.20;;;;;;;9.61;87.91;101886.86;1650892;85;20898;-61